Terminal Aerodrome Forecast
Issued by NWS

Home | Current Version | Previous Version | Text Only | Print | Product List | Glossary On
Versions: 1 2 3 4 5 6 7 8 9 10 11 12 13
000
FTUS44 KOUN 271737
TAFGAG
TAF
KGAG 271737Z 2718/2818 04009KT P6SM SKC
     FM272300 13006KT P6SM SCT200
     FM281000 11010KT P6SM OVC012
      TEMPO 2814/2818 4SM -TSRA BR OVC007CB=

USA.gov is the U.S. government's official web portal to all federal, state and local government web resources and services.